sensor_id;sensor_type;location;lat;lon;timestamp;pressure;altitude;pressure_sealevel;temperature;humidity
34931;BME280;21134;49.646;8.560;2022-07-29T00:00:19;100353.09;;;21.60;53.04
34931;BME280;21134;49.646;8.560;2022-07-29T00:02:45;100351.56;;;21.56;52.86
34931;BME280;21134;49.646;8.560;2022-07-29T00:05:12;100350.88;;;21.52;52.87
34931;BME280;21134;49.646;8.560;2022-07-29T00:07:39;100341.00;;;21.42;54.15
34931;BME280;21134;49.646;8.560;2022-07-29T00:10:05;100343.91;;;21.34;54.30
34931;BME280;21134;49.646;8.560;2022-07-29T00:12:33;100348.94;;;21.39;54.11
34931;BME280;21134;49.646;8.560;2022-07-29T00:15:01;100342.63;;;21.25;54.00
34931;BME280;21134;49.646;8.560;2022-07-29T00:17:27;100353.06;;;21.24;53.90
34931;BME280;21134;49.646;8.560;2022-07-29T00:19:54;100360.97;;;21.22;53.65
34931;BME280;21134;49.646;8.560;2022-07-29T00:22:20;100357.81;;;21.16;53.78
34931;BME280;21134;49.646;8.560;2022-07-29T00:24:48;100369.53;;;21.05;54.03
34931;BME280;21134;49.646;8.560;2022-07-29T00:27:14;100361.00;;;21.03;53.94
34931;BME280;21134;49.646;8.560;2022-07-29T00:29:42;100356.75;;;21.01;53.44
34931;BME280;21134;49.646;8.560;2022-07-29T00:32:09;100362.66;;;21.04;53.55
34931;BME280;21134;49.646;8.560;2022-07-29T00:34:36;100356.69;;;21.02;53.23
34931;BME280;21134;49.646;8.560;2022-07-29T00:37:20;100351.28;;;21.07;52.65
34931;BME280;21134;49.646;8.560;2022-07-29T00:39:46;100352.97;;;21.08;51.92
34931;BME280;21134;49.646;8.560;2022-07-29T00:42:13;100347.28;;;21.00;52.10
34931;BME280;21134;49.646;8.560;2022-07-29T00:44:40;100345.44;;;21.02;51.83
34931;BME280;21134;49.646;8.560;2022-07-29T00:47:09;100341.84;;;21.04;50.87
34931;BME280;21134;49.646;8.560;2022-07-29T00:49:36;100353.03;;;21.06;51.02
34931;BME280;21134;49.646;8.560;2022-07-29T00:52:06;100343.38;;;21.08;50.85
34931;BME280;21134;49.646;8.560;2022-07-29T00:54:33;100345.09;;;21.09;50.68
34931;BME280;21134;49.646;8.560;2022-07-29T00:57:00;100345.78;;;21.13;50.81
34931;BME280;21134;49.646;8.560;2022-07-29T00:59:27;100343.38;;;21.08;51.02
34931;BME280;21134;49.646;8.560;2022-07-29T01:01:54;100338.28;;;21.07;50.97
34931;BME280;21134;49.646;8.560;2022-07-29T01:04:22;100335.94;;;21.01;51.57
34931;BME280;21134;49.646;8.560;2022-07-29T01:06:49;100328.16;;;21.01;51.78
34931;BME280;21134;49.646;8.560;2022-07-29T01:09:18;100327.16;;;21.03;50.84
34931;BME280;21134;49.646;8.560;2022-07-29T01:11:45;100327.91;;;21.05;50.91
34931;BME280;21134;49.646;8.560;2022-07-29T01:14:14;100324.47;;;21.05;51.08
34931;BME280;21134;49.646;8.560;2022-07-29T01:16:45;100323.78;;;21.01;50.98
34931;BME280;21134;49.646;8.560;2022-07-29T01:19:30;100320.34;;;21.01;51.27
34931;BME280;21134;49.646;8.560;2022-07-29T01:22:10;100322.16;;;20.99;51.01
34931;BME280;21134;49.646;8.560;2022-07-29T01:24:55;100317.38;;;20.89;51.33
34931;BME280;21134;49.646;8.560;2022-07-29T01:27:38;100315.50;;;20.93;51.62
34931;BME280;21134;49.646;8.560;2022-07-29T01:30:09;100319.44;;;20.83;52.14
34931;BME280;21134;49.646;8.560;2022-07-29T01:32:38;100312.84;;;20.76;52.08
34931;BME280;21134;49.646;8.560;2022-07-29T01:35:10;100312.13;;;20.72;52.23
34931;BME280;21134;49.646;8.560;2022-07-29T01:37:44;100309.72;;;20.67;52.38
34931;BME280;21134;49.646;8.560;2022-07-29T01:40:14;100303.63;;;20.69;52.81
34931;BME280;21134;49.646;8.560;2022-07-29T01:42:50;100300.06;;;20.71;52.45
34931;BME280;21134;49.646;8.560;2022-07-29T01:45:21;100309.91;;;20.64;53.18
34931;BME280;21134;49.646;8.560;2022-07-29T01:47:55;100308.34;;;20.60;53.04
34931;BME280;21134;49.646;8.560;2022-07-29T01:50:28;100296.63;;;20.52;53.57
34931;BME280;21134;49.646;8.560;2022-07-29T01:52:58;100289.66;;;20.52;53.52
34931;BME280;21134;49.646;8.560;2022-07-29T01:55:31;100296.44;;;20.55;53.85
34931;BME280;21134;49.646;8.560;2022-07-29T01:57:59;100293.94;;;20.53;53.80
34931;BME280;21134;49.646;8.560;2022-07-29T02:00:30;100295.56;;;20.56;53.44
34931;BME280;21134;49.646;8.560;2022-07-29T02:02:58;100298.03;;;20.38;54.17
34931;BME280;21134;49.646;8.560;2022-07-29T02:05:27;100297.75;;;20.44;54.33
34931;BME280;21134;49.646;8.560;2022-07-29T02:07:56;100290.19;;;20.40;54.50
34931;BME280;21134;49.646;8.560;2022-07-29T02:10:27;100291.72;;;20.44;54.45
34931;BME280;21134;49.646;8.560;2022-07-29T02:12:56;100281.44;;;20.41;54.66
34931;BME280;21134;49.646;8.560;2022-07-29T02:15:24;100272.13;;;20.37;54.99
34931;BME280;21134;49.646;8.560;2022-07-29T02:17:56;100278.09;;;20.39;54.44
34931;BME280;21134;49.646;8.560;2022-07-29T02:20:25;100276.88;;;20.27;54.97
34931;BME280;21134;49.646;8.560;2022-07-29T02:22:53;100271.13;;;20.20;55.19
34931;BME280;21134;49.646;8.560;2022-07-29T02:25:23;100276.31;;;20.20;55.25
34931;BME280;21134;49.646;8.560;2022-07-29T02:27:51;100279.66;;;20.23;55.53
34931;BME280;21134;49.646;8.560;2022-07-29T02:30:19;100281.50;;;20.20;55.68
34931;BME280;21134;49.646;8.560;2022-07-29T02:32:49;100285.22;;;20.15;56.05
34931;BME280;21134;49.646;8.560;2022-07-29T02:35:19;100284.50;;;20.11;56.37
34931;BME280;21134;49.646;8.560;2022-07-29T02:37:47;100282.88;;;20.09;57.00
34931;BME280;21134;49.646;8.560;2022-07-29T02:40:38;100285.69;;;20.04;56.88
34931;BME280;21134;49.646;8.560;2022-07-29T02:43:05;100290.91;;;20.04;57.01
34931;BME280;21134;49.646;8.560;2022-07-29T02:45:33;100296.22;;;20.01;56.97
34931;BME280;21134;49.646;8.560;2022-07-29T02:48:05;100292.97;;;19.96;57.39
34931;BME280;21134;49.646;8.560;2022-07-29T02:50:36;100305.25;;;19.92;57.41
34931;BME280;21134;49.646;8.560;2022-07-29T02:53:07;100295.81;;;19.90;57.93
34931;BME280;21134;49.646;8.560;2022-07-29T02:55:40;100296.66;;;19.90;57.57
34931;BME280;21134;49.646;8.560;2022-07-29T02:58:13;100295.31;;;19.82;57.63
34931;BME280;21134;49.646;8.560;2022-07-29T03:00:42;100295.44;;;19.79;57.91
34931;BME280;21134;49.646;8.560;2022-07-29T03:03:15;100299.19;;;19.71;58.39
34931;BME280;21134;49.646;8.560;2022-07-29T03:05:44;100298.47;;;19.68;58.50
34931;BME280;21134;49.646;8.560;2022-07-29T03:08:11;100291.53;;;19.68;58.72
34931;BME280;21134;49.646;8.560;2022-07-29T03:10:42;100288.25;;;19.63;58.74
34931;BME280;21134;49.646;8.560;2022-07-29T03:13:09;100282.28;;;19.61;58.92
34931;BME280;21134;49.646;8.560;2022-07-29T03:15:37;100283.38;;;19.56;58.97
34931;BME280;21134;49.646;8.560;2022-07-29T03:18:05;100292.09;;;19.55;58.56
34931;BME280;21134;49.646;8.560;2022-07-29T03:20:33;100281.56;;;19.58;58.45
34931;BME280;21134;49.646;8.560;2022-07-29T03:23:01;100289.22;;;19.61;58.30
34931;BME280;21134;49.646;8.560;2022-07-29T03:25:28;100281.22;;;19.67;57.34
34931;BME280;21134;49.646;8.560;2022-07-29T03:27:54;100283.63;;;19.71;57.69
34931;BME280;21134;49.646;8.560;2022-07-29T03:30:22;100280.88;;;19.74;58.03
34931;BME280;21134;49.646;8.560;2022-07-29T03:32:49;100281.88;;;19.72;58.18
34931;BME280;21134;49.646;8.560;2022-07-29T03:35:16;100277.53;;;19.72;57.89
34931;BME280;21134;49.646;8.560;2022-07-29T03:37:43;100287.97;;;19.71;57.67
34931;BME280;21134;49.646;8.560;2022-07-29T03:40:14;100287.34;;;19.66;57.85
34931;BME280;21134;49.646;8.560;2022-07-29T03:42:43;100292.56;;;19.64;57.94
34931;BME280;21134;49.646;8.560;2022-07-29T03:45:15;100290.78;;;19.66;57.49
34931;BME280;21134;49.646;8.560;2022-07-29T03:47:47;100284.75;;;19.66;57.45
34931;BME280;21134;49.646;8.560;2022-07-29T03:50:15;100283.03;;;19.65;57.55
34931;BME280;21134;49.646;8.560;2022-07-29T03:52:42;100284.78;;;19.64;57.75
34931;BME280;21134;49.646;8.560;2022-07-29T03:55:09;100289.84;;;19.67;57.12
34931;BME280;21134;49.646;8.560;2022-07-29T03:57:37;100285.38;;;19.71;56.91
34931;BME280;21134;49.646;8.560;2022-07-29T04:00:07;100290.44;;;19.74;56.72
34931;BME280;21134;49.646;8.560;2022-07-29T04:02:35;100285.38;;;19.71;57.63
34931;BME280;21134;49.646;8.560;2022-07-29T04:05:02;100290.69;;;19.68;57.93
34931;BME280;21134;49.646;8.560;2022-07-29T04:07:28;100288.88;;;19.70;57.92
34931;BME280;21134;49.646;8.560;2022-07-29T04:09:55;100291.47;;;19.70;57.82
34931;BME280;21134;49.646;8.560;2022-07-29T04:12:21;100282.16;;;19.66;58.16
34931;BME280;21134;49.646;8.560;2022-07-29T04:14:49;100290.06;;;19.61;58.37
34931;BME280;21134;49.646;8.560;2022-07-29T04:17:16;100295.34;;;19.60;58.58
34931;BME280;21134;49.646;8.560;2022-07-29T04:19:42;100292.09;;;19.55;58.28
34931;BME280;21134;49.646;8.560;2022-07-29T04:22:09;100292.09;;;19.55;58.47
34931;BME280;21134;49.646;8.560;2022-07-29T04:24:35;100298.81;;;19.59;58.51
34931;BME280;21134;49.646;8.560;2022-07-29T04:27:02;100300.38;;;19.64;58.66
34931;BME280;21134;49.646;8.560;2022-07-29T04:29:28;100295.22;;;19.63;58.76
34931;BME280;21134;49.646;8.560;2022-07-29T04:31:56;100302.03;;;19.65;58.83
34931;BME280;21134;49.646;8.560;2022-07-29T04:34:23;100307.19;;;19.67;58.91
34931;BME280;21134;49.646;8.560;2022-07-29T04:36:49;100307.09;;;19.68;58.36
34931;BME280;21134;49.646;8.560;2022-07-29T04:39:16;100300.19;;;19.69;58.59
34931;BME280;21134;49.646;8.560;2022-07-29T04:41:44;100300.09;;;19.70;58.75
34931;BME280;21134;49.646;8.560;2022-07-29T04:44:11;100300.09;;;19.70;58.94
34931;BME280;21134;49.646;8.560;2022-07-29T04:46:38;100299.13;;;19.73;58.60
34931;BME280;21134;49.646;8.560;2022-07-29T04:49:06;100302.44;;;19.77;58.95
34931;BME280;21134;49.646;8.560;2022-07-29T04:51:33;100304.22;;;19.76;59.26
34931;BME280;21134;49.646;8.560;2022-07-29T04:53:59;100303.28;;;19.77;59.01
34931;BME280;21134;49.646;8.560;2022-07-29T04:56:26;100306.69;;;19.79;59.08
34931;BME280;21134;49.646;8.560;2022-07-29T04:58:52;100306.53;;;19.82;58.32
34931;BME280;21134;49.646;8.560;2022-07-29T05:01:19;100297.97;;;19.80;58.14
34931;BME280;21134;49.646;8.560;2022-07-29T05:03:46;100303.88;;;19.84;58.27
34931;BME280;21134;49.646;8.560;2022-07-29T05:06:14;100299.25;;;19.90;58.35
34931;BME280;21134;49.646;8.560;2022-07-29T05:08:41;100306.06;;;19.93;58.59
34931;BME280;21134;49.646;8.560;2022-07-29T05:11:07;100313.56;;;20.01;58.59
34931;BME280;21134;49.646;8.560;2022-07-29T05:13:34;100315.25;;;20.02;58.48
34931;BME280;21134;49.646;8.560;2022-07-29T05:16:01;100303.00;;;20.04;58.63
34931;BME280;21134;49.646;8.560;2022-07-29T05:18:28;100302.88;;;20.07;58.86
34931;BME280;21134;49.646;8.560;2022-07-29T05:20:54;100312.16;;;20.12;58.92
34931;BME280;21134;49.646;8.560;2022-07-29T05:23:22;100308.38;;;20.19;59.19
34931;BME280;21134;49.646;8.560;2022-07-29T05:25:49;100303.06;;;20.23;59.14
34931;BME280;21134;49.646;8.560;2022-07-29T05:28:15;100307.72;;;20.35;58.71
34931;BME280;21134;49.646;8.560;2022-07-29T05:30:42;100306.53;;;20.42;58.96
34931;BME280;21134;49.646;8.560;2022-07-29T05:33:09;100316.50;;;20.53;58.41
34931;BME280;21134;49.646;8.560;2022-07-29T05:35:36;100311.06;;;20.57;58.19
34931;BME280;21134;49.646;8.560;2022-07-29T05:38:03;100316.84;;;20.64;57.91
34931;BME280;21134;49.646;8.560;2022-07-29T05:40:31;100319.00;;;20.73;57.37
34931;BME280;21134;49.646;8.560;2022-07-29T05:42:58;100316.00;;;20.82;56.00
34931;BME280;21134;49.646;8.560;2022-07-29T05:45:24;100310.31;;;20.93;54.78
34931;BME280;21134;49.646;8.560;2022-07-29T05:47:51;100316.75;;;21.03;54.04
34931;BME280;21134;49.646;8.560;2022-07-29T05:50:17;100317.16;;;21.13;53.35
34931;BME280;21134;49.646;8.560;2022-07-29T05:52:44;100314.88;;;21.24;52.84
34931;BME280;21134;49.646;8.560;2022-07-29T05:55:11;100317.84;;;21.35;52.73
34931;BME280;21134;49.646;8.560;2022-07-29T05:57:39;100327.81;;;21.45;52.54
34931;BME280;21134;49.646;8.560;2022-07-29T06:00:06;100319.56;;;21.54;52.70
34931;BME280;21134;49.646;8.560;2022-07-29T06:02:33;100327.81;;;21.62;52.52
34931;BME280;21134;49.646;8.560;2022-07-29T06:04:59;100334.34;;;21.71;52.58
34931;BME280;21134;49.646;8.560;2022-07-29T06:07:26;100329.72;;;21.76;52.75
34931;BME280;21134;49.646;8.560;2022-07-29T06:09:52;100333.81;;;21.81;53.04
34931;BME280;21134;49.646;8.560;2022-07-29T06:12:19;100333.44;;;21.89;53.38
34931;BME280;21134;49.646;8.560;2022-07-29T06:14:47;100343.34;;;21.98;53.51
34931;BME280;21134;49.646;8.560;2022-07-29T06:17:13;100338.31;;;22.13;53.17
34931;BME280;21134;49.646;8.560;2022-07-29T06:19:41;100340.53;;;22.20;53.41
34931;BME280;21134;49.646;8.560;2022-07-29T06:22:08;100343.59;;;22.28;53.44
34931;BME280;21134;49.646;8.560;2022-07-29T06:24:36;100338.66;;;22.40;53.06
34931;BME280;21134;49.646;8.560;2022-07-29T06:27:06;100342.00;;;22.59;51.82
34931;BME280;21134;49.646;8.560;2022-07-29T06:29:33;100334.00;;;22.62;51.97
34931;BME280;21134;49.646;8.560;2022-07-29T06:32:01;100340.47;;;22.71;52.37
34931;BME280;21134;49.646;8.560;2022-07-29T06:34:28;100338.81;;;22.86;52.40
34931;BME280;21134;49.646;8.560;2022-07-29T06:36:54;100338.84;;;23.02;51.78
34931;BME280;21134;49.646;8.560;2022-07-29T06:39:21;100338.00;;;23.17;52.52
34931;BME280;21134;49.646;8.560;2022-07-29T06:41:48;100342.63;;;23.28;53.04
34931;BME280;21134;49.646;8.560;2022-07-29T06:44:15;100340.50;;;23.34;53.03
34931;BME280;21134;49.646;8.560;2022-07-29T06:46:42;100341.66;;;23.44;53.36
34931;BME280;21134;49.646;8.560;2022-07-29T06:49:10;100337.31;;;23.59;53.64
34931;BME280;21134;49.646;8.560;2022-07-29T06:51:38;100346.66;;;23.63;53.94
34931;BME280;21134;49.646;8.560;2022-07-29T06:54:04;100340.94;;;23.73;53.86
34931;BME280;21134;49.646;8.560;2022-07-29T06:56:31;100342.25;;;23.80;54.16
34931;BME280;21134;49.646;8.560;2022-07-29T06:58:58;100343.59;;;23.87;53.94
34931;BME280;21134;49.646;8.560;2022-07-29T07:01:24;100351.81;;;23.95;54.49
34931;BME280;21134;49.646;8.560;2022-07-29T07:03:51;100351.28;;;24.04;54.73
34931;BME280;21134;49.646;8.560;2022-07-29T07:06:19;100359.78;;;24.08;54.52
34931;BME280;21134;49.646;8.560;2022-07-29T07:08:45;100363.59;;;24.02;55.32
34931;BME280;21134;49.646;8.560;2022-07-29T07:11:12;100364.47;;;24.17;55.95
34931;BME280;21134;49.646;8.560;2022-07-29T07:13:38;100371.09;;;24.23;56.54
34931;BME280;21134;49.646;8.560;2022-07-29T07:16:05;100372.41;;;24.30;56.44
34931;BME280;21134;49.646;8.560;2022-07-29T07:18:31;100369.91;;;24.28;56.09
34931;BME280;21134;49.646;8.560;2022-07-29T07:20:58;100378.41;;;24.32;56.57
34931;BME280;21134;49.646;8.560;2022-07-29T07:23:26;100370.03;;;24.41;56.65
34931;BME280;21134;49.646;8.560;2022-07-29T07:25:52;100374.97;;;24.46;56.92
34931;BME280;21134;49.646;8.560;2022-07-29T07:28:19;100376.00;;;24.43;56.94
34931;BME280;21134;49.646;8.560;2022-07-29T07:30:46;100368.91;;;24.45;56.58
34931;BME280;21134;49.646;8.560;2022-07-29T07:33:13;100375.41;;;24.38;55.96
34931;BME280;21134;49.646;8.560;2022-07-29T07:35:39;100375.16;;;24.43;55.82
34931;BME280;21134;49.646;8.560;2022-07-29T07:38:06;100370.06;;;24.40;55.34
34931;BME280;21134;49.646;8.560;2022-07-29T07:40:34;100376.47;;;24.50;55.66
34931;BME280;21134;49.646;8.560;2022-07-29T07:43:01;100376.09;;;24.70;54.78
34931;BME280;21134;49.646;8.560;2022-07-29T07:45:28;100366.81;;;24.79;54.26
34931;BME280;21134;49.646;8.560;2022-07-29T07:47:54;100367.63;;;24.94;53.94
34931;BME280;21134;49.646;8.560;2022-07-29T07:50:21;100370.72;;;25.00;53.21
34931;BME280;21134;49.646;8.560;2022-07-29T07:52:49;100372.88;;;25.08;53.34
34931;BME280;21134;49.646;8.560;2022-07-29T07:55:16;100374.53;;;25.09;53.17
34931;BME280;21134;49.646;8.560;2022-07-29T07:57:45;100367.91;;;25.18;53.61
34931;BME280;21134;49.646;8.560;2022-07-29T08:00:12;100371.06;;;25.23;53.59
34931;BME280;21134;49.646;8.560;2022-07-29T08:02:40;100375.78;;;25.18;53.44
34931;BME280;21134;49.646;8.560;2022-07-29T08:05:08;100379.31;;;25.17;52.87
34931;BME280;21134;49.646;8.560;2022-07-29T08:07:35;100371.38;;;25.18;50.80
34931;BME280;21134;49.646;8.560;2022-07-29T08:10:02;100374.38;;;25.39;49.54
34931;BME280;21134;49.646;8.560;2022-07-29T08:12:29;100373.56;;;25.51;49.21
34931;BME280;21134;49.646;8.560;2022-07-29T08:14:57;100372.34;;;25.57;48.72
34931;BME280;21134;49.646;8.560;2022-07-29T08:17:24;100378.94;;;25.50;48.50
34931;BME280;21134;49.646;8.560;2022-07-29T08:19:51;100384.06;;;25.24;49.39
34931;BME280;21134;49.646;8.560;2022-07-29T08:22:18;100386.38;;;25.29;49.13
34931;BME280;21134;49.646;8.560;2022-07-29T08:24:45;100378.88;;;25.37;49.34
34931;BME280;21134;49.646;8.560;2022-07-29T08:27:18;100385.00;;;25.50;49.24
34931;BME280;21134;49.646;8.560;2022-07-29T08:29:44;100380.13;;;25.71;49.07
34931;BME280;21134;49.646;8.560;2022-07-29T08:32:12;100376.75;;;25.96;48.19
34931;BME280;21134;49.646;8.560;2022-07-29T08:34:39;100375.09;;;26.08;47.87
34931;BME280;21134;49.646;8.560;2022-07-29T08:37:05;100377.59;;;26.23;48.47
34931;BME280;21134;49.646;8.560;2022-07-29T08:39:32;100385.78;;;26.31;47.86
34931;BME280;21134;49.646;8.560;2022-07-29T08:41:58;100379.38;;;26.48;47.25
34931;BME280;21134;49.646;8.560;2022-07-29T08:44:25;100379.59;;;26.44;47.39
34931;BME280;21134;49.646;8.560;2022-07-29T08:46:52;100387.28;;;26.60;47.00
34931;BME280;21134;49.646;8.560;2022-07-29T08:49:20;100384.00;;;26.70;47.28
34931;BME280;21134;49.646;8.560;2022-07-29T08:51:46;100379.56;;;26.83;47.37
34931;BME280;21134;49.646;8.560;2022-07-29T08:54:17;100385.91;;;26.80;47.91
34931;BME280;21134;49.646;8.560;2022-07-29T08:56:45;100392.16;;;26.90;47.21
34931;BME280;21134;49.646;8.560;2022-07-29T08:59:14;100391.66;;;26.73;47.94
34931;BME280;21134;49.646;8.560;2022-07-29T09:01:43;100388.81;;;26.76;48.45
34931;BME280;21134;49.646;8.560;2022-07-29T09:04:11;100386.34;;;26.98;48.11
34931;BME280;21134;49.646;8.560;2022-07-29T09:06:43;100382.69;;;27.01;47.18
34931;BME280;21134;49.646;8.560;2022-07-29T09:09:11;100383.50;;;27.01;47.45
34931;BME280;21134;49.646;8.560;2022-07-29T09:11:39;100386.56;;;26.95;48.00
34931;BME280;21134;49.646;8.560;2022-07-29T09:14:06;100393.28;;;26.99;47.94
34931;BME280;21134;49.646;8.560;2022-07-29T09:16:46;100392.09;;;26.66;47.80
34931;BME280;21134;49.646;8.560;2022-07-29T09:19:20;100385.78;;;26.69;47.73
34931;BME280;21134;49.646;8.560;2022-07-29T09:21:48;100386.56;;;26.95;46.91
34931;BME280;21134;49.646;8.560;2022-07-29T09:24:41;100389.00;;;26.85;46.82
34931;BME280;21134;49.646;8.560;2022-07-29T09:27:22;100377.44;;;27.01;46.99
34931;BME280;21134;49.646;8.560;2022-07-29T09:29:58;100388.09;;;27.23;46.52
34931;BME280;21134;49.646;8.560;2022-07-29T09:32:25;100384.97;;;27.42;45.78
34931;BME280;21134;49.646;8.560;2022-07-29T09:35:14;100380.09;;;27.49;46.09
34931;BME280;21134;49.646;8.560;2022-07-29T09:37:43;100370.72;;;27.69;44.89
34931;BME280;21134;49.646;8.560;2022-07-29T09:40:14;100373.97;;;27.72;45.36
34931;BME280;21134;49.646;8.560;2022-07-29T09:42:42;100379.81;;;27.65;45.48
34931;BME280;21134;49.646;8.560;2022-07-29T09:45:09;100374.69;;;27.74;45.32
34931;BME280;21134;49.646;8.560;2022-07-29T09:47:43;100377.72;;;27.81;45.09
34931;BME280;21134;49.646;8.560;2022-07-29T09:50:14;100382.88;;;27.58;46.17
34931;BME280;21134;49.646;8.560;2022-07-29T09:52:46;100378.22;;;27.51;46.20
34931;BME280;21134;49.646;8.560;2022-07-29T09:55:14;100376.94;;;27.68;45.97
34931;BME280;21134;49.646;8.560;2022-07-29T09:57:41;100376.56;;;27.61;46.52
34931;BME280;21134;49.646;8.560;2022-07-29T10:00:09;100368.69;;;27.72;46.15
34931;BME280;21134;49.646;8.560;2022-07-29T10:02:38;100378.03;;;28.00;45.27
34931;BME280;21134;49.646;8.560;2022-07-29T10:05:08;100374.50;;;28.24;44.23
34931;BME280;21134;49.646;8.560;2022-07-29T10:07:47;100374.97;;;28.18;44.93
34931;BME280;21134;49.646;8.560;2022-07-29T10:10:23;100377.03;;;28.48;44.36
34931;BME280;21134;49.646;8.560;2022-07-29T10:12:54;100369.50;;;28.55;44.44
34931;BME280;21134;49.646;8.560;2022-07-29T10:15:23;100372.00;;;28.45;44.76
34931;BME280;21134;49.646;8.560;2022-07-29T10:17:50;100365.06;;;28.66;44.26
34931;BME280;21134;49.646;8.560;2022-07-29T10:20:17;100364.44;;;28.85;43.56
34931;BME280;21134;49.646;8.560;2022-07-29T10:22:45;100365.88;;;28.56;44.38
34931;BME280;21134;49.646;8.560;2022-07-29T10:25:14;100360.97;;;28.73;44.04
34931;BME280;21134;49.646;8.560;2022-07-29T10:27:41;100368.38;;;29.13;43.66
34931;BME280;21134;49.646;8.560;2022-07-29T10:30:09;100367.16;;;29.17;43.39
34931;BME280;21134;49.646;8.560;2022-07-29T10:32:44;100370.41;;;29.10;43.66
34931;BME280;21134;49.646;8.560;2022-07-29T10:35:31;100363.09;;;29.46;43.05
34931;BME280;21134;49.646;8.560;2022-07-29T10:38:29;100357.91;;;29.55;42.42
34931;BME280;21134;49.646;8.560;2022-07-29T10:41:10;100358.69;;;29.67;42.60
34931;BME280;21134;49.646;8.560;2022-07-29T10:43:55;100352.97;;;29.83;42.65
34931;BME280;21134;49.646;8.560;2022-07-29T10:46:22;100348.16;;;29.88;41.49
34931;BME280;21134;49.646;8.560;2022-07-29T10:49:11;100337.56;;;29.46;42.41
34931;BME280;21134;49.646;8.560;2022-07-29T10:52:01;100346.16;;;29.48;42.26
34931;BME280;21134;49.646;8.560;2022-07-29T10:54:47;100338.81;;;29.42;42.88
34931;BME280;21134;49.646;8.560;2022-07-29T10:57:21;100341.13;;;29.24;43.01
34931;BME280;21134;49.646;8.560;2022-07-29T10:59:48;100345.31;;;29.59;42.14
34931;BME280;21134;49.646;8.560;2022-07-29T11:02:41;100339.97;;;29.49;42.55
34931;BME280;21134;49.646;8.560;2022-07-29T11:05:10;100336.84;;;29.44;42.23
34931;BME280;21134;49.646;8.560;2022-07-29T11:07:38;100337.94;;;29.41;42.84
34931;BME280;21134;49.646;8.560;2022-07-29T11:10:23;100348.16;;;29.35;42.34
34931;BME280;21134;49.646;8.560;2022-07-29T11:12:50;100348.88;;;29.05;43.34
34931;BME280;21134;49.646;8.560;2022-07-29T11:15:18;100343.13;;;29.32;43.05
34931;BME280;21134;49.646;8.560;2022-07-29T11:18:07;100335.69;;;29.58;42.39
34931;BME280;21134;49.646;8.560;2022-07-29T11:20:36;100329.81;;;29.86;42.14
34931;BME280;21134;49.646;8.560;2022-07-29T11:23:21;100342.63;;;29.70;41.90
34931;BME280;21134;49.646;8.560;2022-07-29T11:26:16;100333.19;;;29.68;42.12
34931;BME280;21134;49.646;8.560;2022-07-29T11:28:54;100333.63;;;29.08;42.95
34931;BME280;21134;49.646;8.560;2022-07-29T11:31:38;100323.81;;;29.10;42.90
34931;BME280;21134;49.646;8.560;2022-07-29T11:34:21;100332.56;;;29.43;42.51
34931;BME280;21134;49.646;8.560;2022-07-29T11:37:16;100324.22;;;29.59;42.17
34931;BME280;21134;49.646;8.560;2022-07-29T11:39:43;100324.31;;;29.69;42.74
34931;BME280;21134;49.646;8.560;2022-07-29T11:42:38;100326.84;;;29.59;42.41
34931;BME280;21134;49.646;8.560;2022-07-29T11:45:07;100330.41;;;29.90;41.59
34931;BME280;21134;49.646;8.560;2022-07-29T11:47:35;100330.09;;;30.14;41.82
34931;BME280;21134;49.646;8.560;2022-07-29T11:50:03;100325.31;;;30.19;41.05
34931;BME280;21134;49.646;8.560;2022-07-29T11:52:32;100324.81;;;30.35;41.67
34931;BME280;21134;49.646;8.560;2022-07-29T11:55:03;100318.19;;;30.50;40.43
34931;BME280;21134;49.646;8.560;2022-07-29T11:57:30;100317.09;;;30.63;40.70
34931;BME280;21134;49.646;8.560;2022-07-29T11:59:59;100319.88;;;30.51;40.33
34931;BME280;21134;49.646;8.560;2022-07-29T12:02:38;100320.13;;;30.18;40.59
34931;BME280;21134;49.646;8.560;2022-07-29T12:05:05;100313.97;;;30.28;41.04
34931;BME280;21134;49.646;8.560;2022-07-29T12:07:32;100306.78;;;30.50;40.25
34931;BME280;21134;49.646;8.560;2022-07-29T12:10:00;100305.66;;;30.83;39.49
34931;BME280;21134;49.646;8.560;2022-07-29T12:12:27;100301.22;;;30.93;38.89
34931;BME280;21134;49.646;8.560;2022-07-29T12:14:53;100296.72;;;30.74;39.87
34931;BME280;21134;49.646;8.560;2022-07-29T12:17:29;100297.19;;;30.89;39.13
34931;BME280;21134;49.646;8.560;2022-07-29T12:19:58;100300.03;;;30.67;39.21
34931;BME280;21134;49.646;8.560;2022-07-29T12:22:25;100300.19;;;30.75;39.09
34931;BME280;21134;49.646;8.560;2022-07-29T12:24:52;100292.47;;;30.93;38.27
34931;BME280;21134;49.646;8.560;2022-07-29T12:27:19;100303.31;;;30.99;39.00
34931;BME280;21134;49.646;8.560;2022-07-29T12:29:54;100305.69;;;31.12;38.24
34931;BME280;21134;49.646;8.560;2022-07-29T12:32:21;100297.63;;;31.33;37.75
34931;BME280;21134;49.646;8.560;2022-07-29T12:34:50;100297.63;;;31.33;37.95
34931;BME280;21134;49.646;8.560;2022-07-29T12:37:17;100302.50;;;31.38;37.19
34931;BME280;21134;49.646;8.560;2022-07-29T12:39:43;100302.31;;;31.20;37.57
34931;BME280;21134;49.646;8.560;2022-07-29T12:42:11;100305.53;;;31.23;37.73
34931;BME280;21134;49.646;8.560;2022-07-29T12:44:45;100296.75;;;31.33;36.49
34931;BME280;21134;49.646;8.560;2022-07-29T12:47:12;100297.63;;;31.33;35.98
34931;BME280;21134;49.646;8.560;2022-07-29T12:49:39;100302.22;;;31.12;36.42
34931;BME280;21134;49.646;8.560;2022-07-29T12:52:25;100288.13;;;30.92;36.40
34931;BME280;21134;49.646;8.560;2022-07-29T12:54:53;100292.00;;;30.78;36.88
34931;BME280;21134;49.646;8.560;2022-07-29T12:57:19;100288.63;;;30.76;36.88
34931;BME280;21134;49.646;8.560;2022-07-29T13:00:08;100279.63;;;30.88;37.38
34931;BME280;21134;49.646;8.560;2022-07-29T13:02:37;100276.44;;;30.94;37.18